Terminal Aerodrome Forecast
Issued by NWS Springfield, MO

Home | Current Version | Previous Version | Text Only | Print | Product List | Glossary On
Versions: 1 2 3 4 5 6 7 8 9 10 11 12 13 14 15 16 17 18 19
000
FTUS43 KSGF 242300
TAFSGF
TAF
KSGF 242331Z 2500/2524 15015G25KT P6SM SCT035 OVC200
     FM250400 16015G24KT P6SM VCSH SCT015 OVC050 WS020/21045KT
     FM251200 20012KT P6SM BKN050 OVC100
     FM251500 24015G22KT P6SM SCT050=

USA.gov is the U.S. government's official web portal to all federal, state and local government web resources and services.